createdAt,value
2019-04-25T00:00:21.539Z,14.20
2019-04-25T00:01:21.663Z,14.40
2019-04-25T00:02:21.536Z,16.60
2019-04-25T00:03:22.298Z,16.10
2019-04-25T00:04:21.616Z,14.60
2019-04-25T00:05:21.530Z,12.00
2019-04-25T00:06:22.957Z,14.20
2019-04-25T00:07:21.732Z,15.50
2019-04-25T00:08:21.564Z,14.40
2019-04-25T00:09:21.935Z,14.20
2019-04-25T00:10:22.059Z,13.00
2019-04-25T00:11:21.619Z,12.30
2019-04-25T00:12:22.264Z,13.30
2019-04-25T00:13:21.848Z,14.60
2019-04-25T00:14:22.599Z,13.30
2019-04-25T00:15:22.378Z,12.00
2019-04-25T00:16:21.643Z,14.90
2019-04-25T00:17:21.522Z,12.70
2019-04-25T00:18:22.078Z,12.80
2019-04-25T00:19:21.950Z,14.30
2019-04-25T00:20:21.506Z,15.40
2019-04-25T00:21:21.933Z,13.50
2019-04-25T00:22:21.697Z,13.70
2019-04-25T00:23:21.710Z,14.00
2019-04-25T00:24:21.889Z,13.60
2019-04-25T00:25:21.859Z,15.00
2019-04-25T00:26:21.499Z,16.30
2019-04-25T00:27:21.634Z,15.20
2019-04-25T00:28:21.711Z,13.50
2019-04-25T00:29:22.063Z,15.50
2019-04-25T00:30:22.570Z,17.00
2019-04-25T00:31:22.061Z,14.50
2019-04-25T00:32:21.708Z,14.70
2019-04-25T00:33:21.632Z,12.30
2019-04-25T00:34:21.854Z,15.90
2019-04-25T00:35:21.710Z,15.70
2019-04-25T00:36:21.777Z,15.50
2019-04-25T00:37:22.551Z,15.60
2019-04-25T00:38:22.195Z,13.50
2019-04-25T00:39:21.791Z,15.10
2019-04-25T00:40:21.980Z,14.80
2019-04-25T00:41:21.490Z,14.90
2019-04-25T00:42:23.116Z,14.90
2019-04-25T00:43:21.563Z,14.70
2019-04-25T00:44:21.957Z,15.50
2019-04-25T00:45:22.336Z,15.40
2019-04-25T00:46:22.547Z,14.40
2019-04-25T00:47:21.659Z,15.20
2019-04-25T00:48:22.310Z,16.00
2019-04-25T00:49:22.059Z,15.90
2019-04-25T00:50:21.902Z,15.90
2019-04-25T00:51:21.833Z,15.80
2019-04-25T00:52:22.797Z,18.30
2019-04-25T00:53:21.458Z,17.20
2019-04-25T00:54:22.689Z,18.70
2019-04-25T00:55:28.666Z,18.30
2019-04-25T00:56:22.400Z,16.90
2019-04-25T00:57:22.039Z,18.20
2019-04-25T00:58:21.528Z,18.10
2019-04-25T00:59:22.131Z,18.80
2019-04-25T01:00:21.676Z,17.00
2019-04-25T01:01:21.837Z,17.40
2019-04-25T01:02:21.556Z,16.40
2019-04-25T01:03:21.550Z,17.20
2019-04-25T01:04:21.828Z,17.40
2019-04-25T01:05:21.669Z,18.70
2019-04-25T01:06:22.035Z,18.10
2019-04-25T01:07:22.392Z,20.20
2019-04-25T01:08:21.996Z,17.10
2019-04-25T01:09:22.237Z,16.60
2019-04-25T01:10:22.978Z,18.60
2019-04-25T01:11:21.572Z,19.10
2019-04-25T01:12:21.635Z,18.70
2019-04-25T01:13:22.315Z,18.00
2019-04-25T01:14:21.792Z,18.20
2019-04-25T01:15:21.499Z,19.60
2019-04-25T01:16:22.045Z,18.10
2019-04-25T01:17:22.886Z,18.90
2019-04-25T01:18:23.044Z,18.40
2019-04-25T01:19:21.422Z,19.70
2019-04-25T01:20:21.421Z,18.80
2019-04-25T01:21:21.423Z,18.40
2019-04-25T01:22:21.415Z,18.40
2019-04-25T01:23:21.419Z,19.50
2019-04-25T01:24:21.422Z,19.70
2019-04-25T01:25:21.417Z,19.60
2019-04-25T01:26:21.418Z,18.50
2019-04-25T01:27:21.415Z,18.60
2019-04-25T01:28:21.414Z,20.00
2019-04-25T01:29:21.406Z,18.00
2019-04-25T01:30:21.406Z,16.50
2019-04-25T01:31:21.405Z,16.10
2019-04-25T01:32:21.404Z,16.30
2019-04-25T01:33:21.402Z,17.50
2019-04-25T01:34:21.398Z,18.80
2019-04-25T01:35:21.400Z,17.40
2019-04-25T01:36:21.399Z,16.80
2019-04-25T01:37:21.398Z,18.60
2019-04-25T01:38:21.394Z,16.10
2019-04-25T01:39:21.392Z,16.30
2019-04-25T01:40:21.392Z,19.10
2019-04-25T01:41:21.397Z,16.50
2019-04-25T01:42:21.391Z,19.70
2019-04-25T01:43:21.387Z,17.10
2019-04-25T01:44:21.389Z,18.60
2019-04-25T01:45:21.384Z,17.40
2019-04-25T01:46:21.383Z,16.20
2019-04-25T01:47:21.379Z,19.70
2019-04-25T01:48:21.383Z,18.00
2019-04-25T01:49:21.382Z,19.30
2019-04-25T01:50:21.377Z,19.70
2019-04-25T01:51:21.375Z,19.00
2019-04-25T01:52:21.372Z,18.80
2019-04-25T01:53:21.370Z,17.60
2019-04-25T01:54:21.370Z,20.50
2019-04-25T01:55:21.370Z,18.10
2019-04-25T01:56:21.384Z,18.20
2019-04-25T01:57:21.369Z,20.80
2019-04-25T01:58:21.365Z,18.10
2019-04-25T01:59:21.364Z,17.40
2019-04-25T02:00:21.363Z,18.50
2019-04-25T02:01:21.358Z,17.90
2019-04-25T02:02:21.360Z,19.70
2019-04-25T02:03:21.358Z,18.00
2019-04-25T02:04:23.097Z,17.60
2019-04-25T02:05:21.355Z,17.20
2019-04-25T02:06:21.351Z,18.50
2019-04-25T02:07:21.353Z,20.00
2019-04-25T02:08:21.351Z,18.40
2019-04-25T02:09:21.348Z,18.30
2019-04-25T02:10:21.348Z,18.20
2019-04-25T02:11:21.347Z,18.40
2019-04-25T02:12:21.342Z,18.70
2019-04-25T02:13:21.340Z,19.60
2019-04-25T02:14:21.338Z,20.70
2019-04-25T02:15:21.338Z,19.50
2019-04-25T02:16:21.337Z,19.20
2019-04-25T02:17:21.334Z,19.40
2019-04-25T02:18:21.332Z,19.40
2019-04-25T02:19:21.331Z,20.00
2019-04-25T02:20:21.331Z,19.30
2019-04-25T02:21:21.330Z,19.30
2019-04-25T02:22:21.328Z,19.20
2019-04-25T02:23:21.326Z,21.20
2019-04-25T02:24:21.324Z,19.90
2019-04-25T02:25:21.324Z,19.60
2019-04-25T02:26:21.321Z,19.80
2019-04-25T02:27:21.320Z,18.90
2019-04-25T02:28:21.317Z,19.80
2019-04-25T02:29:21.316Z,21.40
2019-04-25T02:30:21.317Z,19.60
2019-04-25T02:31:21.318Z,19.30
2019-04-25T02:32:21.311Z,19.80
2019-04-25T02:33:21.306Z,21.00
2019-04-25T02:34:21.315Z,19.50
2019-04-25T02:35:21.307Z,19.60
2019-04-25T02:36:21.306Z,19.70
2019-04-25T02:37:21.308Z,20.20
2019-04-25T02:38:21.315Z,20.00
2019-04-25T02:39:21.302Z,20.50
2019-04-25T02:40:21.299Z,19.50
2019-04-25T02:41:21.296Z,20.20
2019-04-25T02:42:21.295Z,19.60
2019-04-25T02:43:21.293Z,19.50
2019-04-25T02:44:21.291Z,20.10
2019-04-25T02:45:21.287Z,20.40
2019-04-25T02:46:21.290Z,20.20
2019-04-25T02:47:21.335Z,19.30
2019-04-25T02:48:21.286Z,20.00
2019-04-25T02:49:34.871Z,20.00
2019-04-25T02:50:21.286Z,20.50
2019-04-25T02:51:21.279Z,19.90
2019-04-25T02:52:21.289Z,20.80
2019-04-25T02:53:21.277Z,19.60
2019-04-25T02:54:21.294Z,19.80
2019-04-25T02:55:30.741Z,20.50
2019-04-25T02:56:31.182Z,20.90
2019-04-25T02:57:21.269Z,20.80
2019-04-25T02:58:21.287Z,20.10
2019-04-25T02:59:21.266Z,21.10
2019-04-25T03:00:21.263Z,20.80
2019-04-25T03:01:23.574Z,20.00
2019-04-25T03:02:21.260Z,20.00
2019-04-25T03:03:21.256Z,20.70
2019-04-25T03:04:21.254Z,20.20
2019-04-25T03:05:21.284Z,20.30
2019-04-25T03:06:21.253Z,20.70
2019-04-25T03:07:21.266Z,21.30
2019-04-25T03:08:21.272Z,21.40
2019-04-25T03:09:21.246Z,20.20
2019-04-25T03:10:21.252Z,21.40
2019-04-25T03:11:21.244Z,20.80
2019-04-25T03:12:30.624Z,20.80
2019-04-25T03:13:21.241Z,20.60
2019-04-25T03:14:21.237Z,20.30
2019-04-25T03:15:21.234Z,20.50
2019-04-25T03:16:21.231Z,20.70
2019-04-25T03:17:21.231Z,20.20
2019-04-25T03:18:21.230Z,19.90
2019-04-25T03:19:21.231Z,19.60
2019-04-25T03:20:21.227Z,19.50
2019-04-25T03:21:21.228Z,20.10
2019-04-25T03:22:21.235Z,20.30
2019-04-25T03:23:21.221Z,19.60
2019-04-25T03:24:21.221Z,19.70
2019-04-25T03:25:21.243Z,19.50
2019-04-25T03:26:21.217Z,19.70
2019-04-25T03:27:21.214Z,20.10
2019-04-25T03:28:21.210Z,19.70
2019-04-25T03:29:21.206Z,19.60
2019-04-25T03:30:21.208Z,19.90
2019-04-25T03:31:25.881Z,19.60
2019-04-25T03:32:21.204Z,19.30
2019-04-25T03:33:21.199Z,18.50
2019-04-25T03:34:21.217Z,17.60
2019-04-25T03:35:21.198Z,17.20
2019-04-25T03:36:21.196Z,16.70
2019-04-25T03:37:21.191Z,16.70
2019-04-25T03:38:21.190Z,15.10
2019-04-25T03:39:21.191Z,15.50
2019-04-25T03:40:21.184Z,15.90
2019-04-25T03:41:21.183Z,13.90
2019-04-25T03:42:21.186Z,14.60
2019-04-25T03:43:21.183Z,15.80
2019-04-25T03:44:21.177Z,13.60
2019-04-25T03:45:21.176Z,13.40
2019-04-25T03:46:21.176Z,13.10
2019-04-25T03:47:21.171Z,13.30
2019-04-25T03:48:21.171Z,13.20
2019-04-25T03:49:21.166Z,13.30
2019-04-25T03:50:21.164Z,13.20
2019-04-25T03:51:21.163Z,14.00
2019-04-25T03:52:21.163Z,13.70
2019-04-25T03:53:21.159Z,13.60
2019-04-25T03:54:21.159Z,12.90
2019-04-25T03:55:21.151Z,12.80
2019-04-25T03:56:21.153Z,13.10
2019-04-25T03:57:21.150Z,12.30
2019-04-25T03:58:21.147Z,12.50
2019-04-25T03:59:21.145Z,12.80
2019-04-25T04:00:21.143Z,12.40
2019-04-25T04:01:21.141Z,12.50
2019-04-25T04:02:21.141Z,11.80
2019-04-25T04:03:21.137Z,12.50
2019-04-25T04:04:21.136Z,12.90
2019-04-25T04:05:21.134Z,12.60
2019-04-25T04:06:21.131Z,11.70
2019-04-25T04:07:21.131Z,11.90
2019-04-25T04:08:21.129Z,11.70
2019-04-25T04:09:21.122Z,11.40
2019-04-25T04:10:21.326Z,12.50
2019-04-25T04:11:21.118Z,10.90
2019-04-25T04:12:21.115Z,12.10
2019-04-25T04:13:21.114Z,10.90
2019-04-25T04:14:21.113Z,10.60
2019-04-25T04:15:21.108Z,11.30
2019-04-25T04:16:21.107Z,10.70
2019-04-25T04:17:21.106Z,11.10
2019-04-25T04:18:21.100Z,10.80
2019-04-25T04:19:21.097Z,10.50
2019-04-25T04:20:21.101Z,10.00
2019-04-25T04:21:21.093Z,10.50
2019-04-25T04:22:21.094Z,10.00
2019-04-25T04:23:21.091Z,10.20
2019-04-25T04:24:21.086Z,9.40
2019-04-25T04:25:21.084Z,8.50
2019-04-25T04:26:21.082Z,8.50
2019-04-25T04:27:21.078Z,9.50
2019-04-25T04:28:21.076Z,9.80
2019-04-25T04:29:23.633Z,8.70
2019-04-25T04:30:21.073Z,7.30
2019-04-25T04:31:21.069Z,9.50
2019-04-25T04:32:21.069Z,7.10
2019-04-25T04:33:29.460Z,6.60
2019-04-25T04:34:21.064Z,9.30
2019-04-25T04:35:21.059Z,7.50
2019-04-25T04:36:21.060Z,6.40
2019-04-25T04:37:21.052Z,8.10
2019-04-25T04:38:21.049Z,7.00
2019-04-25T04:39:21.049Z,9.10
2019-04-25T04:40:21.048Z,7.70
2019-04-25T04:41:21.043Z,6.40
2019-04-25T04:42:21.040Z,5.70
2019-04-25T04:43:21.040Z,6.30
2019-04-25T04:44:21.038Z,5.20
2019-04-25T04:45:21.032Z,5.60
2019-04-25T04:46:21.030Z,5.80
2019-04-25T04:47:21.028Z,5.70
2019-04-25T04:48:21.025Z,4.60
2019-04-25T04:49:21.023Z,6.20
2019-04-25T04:50:21.025Z,6.00
2019-04-25T04:51:21.018Z,5.00
2019-04-25T04:52:23.475Z,4.10
2019-04-25T04:53:21.015Z,4.90
2019-04-25T04:54:21.009Z,6.20
2019-04-25T04:55:21.012Z,4.40
2019-04-25T04:56:21.006Z,4.50
2019-04-25T04:57:28.926Z,6.40
2019-04-25T04:58:21.000Z,8.00
2019-04-25T04:59:20.998Z,6.90
2019-04-25T05:00:20.997Z,7.30
2019-04-25T05:01:20.992Z,6.30
2019-04-25T05:02:20.988Z,5.90
2019-04-25T05:03:20.987Z,4.70
2019-04-25T05:04:20.982Z,6.00
2019-04-25T05:05:20.981Z,6.00
2019-04-25T05:06:20.978Z,5.60
2019-04-25T05:07:21.606Z,9.40
2019-04-25T05:08:20.975Z,6.00
2019-04-25T05:09:21.844Z,11.00
2019-04-25T05:10:20.969Z,6.60
2019-04-25T05:11:20.969Z,7.50
2019-04-25T05:12:21.653Z,7.60
2019-04-25T05:13:20.962Z,7.10
2019-04-25T05:14:20.962Z,7.30
2019-04-25T05:15:20.965Z,7.10
2019-04-25T05:16:21.824Z,6.90
2019-04-25T05:17:21.812Z,7.10
2019-04-25T05:18:36.184Z,7.10
2019-04-25T05:19:20.956Z,7.90
2019-04-25T05:20:20.954Z,9.60
2019-04-25T05:21:20.949Z,7.50
2019-04-25T05:22:20.954Z,8.60
2019-04-25T05:23:21.033Z,6.50
2019-04-25T05:24:20.952Z,6.60
2019-04-25T05:25:20.952Z,6.30
2019-04-25T05:26:21.066Z,6.80
2019-04-25T05:27:37.539Z,6.40
2019-04-25T05:28:21.026Z,7.80
2019-04-25T05:29:23.222Z,5.90
2019-04-25T05:30:21.208Z,6.40
2019-04-25T05:31:21.330Z,5.80
2019-04-25T05:32:21.288Z,5.30
2019-04-25T05:33:21.524Z,7.00
2019-04-25T05:34:21.702Z,6.10
2019-04-25T05:35:21.948Z,4.80
2019-04-25T05:36:21.761Z,7.40
2019-04-25T05:37:21.761Z,6.00
2019-04-25T05:38:20.957Z,4.00
2019-04-25T05:39:20.955Z,7.80
2019-04-25T05:40:20.956Z,3.70
2019-04-25T05:41:20.957Z,4.20
2019-04-25T05:42:20.957Z,4.30
2019-04-25T05:43:20.960Z,3.60
2019-04-25T05:44:20.959Z,4.10
2019-04-25T05:45:21.261Z,4.10
2019-04-25T05:46:21.099Z,3.60
2019-04-25T05:47:22.568Z,3.80
2019-04-25T05:48:21.164Z,4.60
2019-04-25T05:49:21.309Z,3.50
2019-04-25T05:50:21.846Z,6.00
2019-04-25T05:51:21.603Z,3.50
2019-04-25T05:52:21.946Z,5.50
2019-04-25T05:53:21.888Z,4.10
2019-04-25T05:54:20.980Z,4.60
2019-04-25T05:55:21.151Z,4.10
2019-04-25T05:56:20.987Z,3.20
2019-04-25T05:57:21.745Z,4.70
2019-04-25T05:58:20.988Z,4.70
2019-04-25T05:59:21.794Z,6.50
2019-04-25T06:00:21.004Z,3.20
2019-04-25T06:01:21.042Z,4.40
2019-04-25T06:02:21.569Z,3.20
2019-04-25T06:03:21.006Z,5.70
2019-04-25T06:04:21.068Z,3.20
2019-04-25T06:05:21.158Z,3.40
2019-04-25T06:06:21.111Z,2.90
2019-04-25T06:07:21.493Z,3.20
2019-04-25T06:08:21.369Z,2.90
2019-04-25T06:09:21.881Z,2.70
2019-04-25T06:10:21.630Z,3.90
2019-04-25T06:11:21.604Z,3.80
2019-04-25T06:12:21.718Z,3.10
2019-04-25T06:13:23.247Z,3.20
2019-04-25T06:14:22.185Z,3.00
2019-04-25T06:15:22.292Z,3.20
2019-04-25T06:16:22.073Z,2.00
2019-04-25T06:17:21.432Z,2.80
2019-04-25T06:18:21.241Z,2.90
2019-04-25T06:19:21.996Z,2.50
2019-04-25T06:20:21.512Z,2.30
2019-04-25T06:21:21.422Z,4.30
2019-04-25T06:22:21.070Z,3.50
2019-04-25T06:23:21.075Z,4.50
2019-04-25T06:24:21.076Z,2.70
2019-04-25T06:25:22.924Z,3.50
2019-04-25T06:26:30.007Z,4.20
2019-04-25T06:27:22.013Z,2.40
2019-04-25T06:28:21.737Z,2.80
2019-04-25T06:29:21.820Z,2.60
2019-04-25T06:30:21.129Z,2.60
2019-04-25T06:31:21.396Z,2.40
2019-04-25T06:32:21.530Z,4.30
2019-04-25T06:33:21.336Z,1.70
2019-04-25T06:34:21.387Z,3.20
2019-04-25T06:35:21.288Z,2.30
2019-04-25T06:36:21.179Z,2.50
2019-04-25T06:37:21.378Z,2.40
2019-04-25T06:38:21.389Z,3.10
2019-04-25T06:39:21.998Z,3.20
2019-04-25T06:40:21.968Z,2.70
2019-04-25T06:41:21.929Z,2.70
2019-04-25T06:42:21.164Z,2.70
2019-04-25T06:43:22.025Z,4.60
2019-04-25T06:44:21.133Z,2.50
2019-04-25T06:45:21.376Z,3.60
2019-04-25T06:46:21.151Z,2.10
2019-04-25T06:47:21.240Z,3.40
2019-04-25T06:48:21.253Z,1.90
2019-04-25T06:49:21.140Z,1.90
2019-04-25T06:50:21.909Z,2.30
2019-04-25T06:51:21.485Z,1.80
2019-04-25T06:52:21.601Z,2.70
2019-04-25T06:53:21.794Z,2.40
2019-04-25T06:54:22.019Z,1.40
2019-04-25T06:55:22.834Z,2.10
2019-04-25T06:56:21.908Z,1.50
2019-04-25T06:57:22.030Z,1.50
2019-04-25T06:58:21.431Z,1.50
2019-04-25T06:59:23.022Z,3.30
2019-04-25T07:00:22.444Z,1.40
2019-04-25T07:01:22.260Z,1.40
2019-04-25T07:02:22.836Z,1.40
2019-04-25T07:03:22.791Z,1.90
2019-04-25T07:04:21.188Z,1.70
2019-04-25T07:05:30.571Z,1.20
2019-04-25T07:06:21.197Z,2.50
2019-04-25T07:07:21.201Z,2.00
2019-04-25T07:08:21.203Z,1.80
2019-04-25T07:09:21.210Z,1.70
2019-04-25T07:10:21.215Z,2.70
2019-04-25T07:11:21.220Z,1.10
2019-04-25T07:12:24.112Z,1.80
2019-04-25T07:13:21.232Z,1.50
2019-04-25T07:14:21.231Z,1.10
2019-04-25T07:15:21.235Z,1.20
2019-04-25T07:16:21.244Z,1.20
2019-04-25T07:17:21.245Z,1.60
2019-04-25T07:18:21.247Z,1.80
2019-04-25T07:19:21.254Z,1.00
2019-04-25T07:20:21.268Z,0.90
2019-04-25T07:21:21.264Z,1.60
2019-04-25T07:22:21.269Z,1.10
2019-04-25T07:23:21.277Z,1.00
2019-04-25T07:24:21.283Z,1.10
2019-04-25T07:25:21.287Z,1.20
2019-04-25T07:26:21.287Z,2.10
2019-04-25T07:27:21.293Z,1.10
2019-04-25T07:28:24.316Z,3.40
2019-04-25T07:29:21.298Z,1.90
2019-04-25T07:30:27.378Z,2.10
2019-04-25T07:31:21.307Z,1.90
2019-04-25T07:32:21.312Z,0.80
2019-04-25T07:33:21.317Z,1.70
2019-04-25T07:34:21.321Z,1.10
2019-04-25T07:35:21.322Z,1.70
2019-04-25T07:36:21.329Z,1.70
2019-04-25T07:37:21.333Z,1.80
2019-04-25T07:38:21.338Z,1.10
2019-04-25T07:39:21.347Z,1.00
2019-04-25T07:40:21.347Z,1.00
2019-04-25T07:41:21.348Z,2.00
2019-04-25T07:42:21.376Z,3.20
2019-04-25T07:43:21.362Z,1.60
2019-04-25T07:44:33.863Z,1.90
2019-04-25T07:45:21.372Z,0.90
2019-04-25T07:46:21.379Z,3.40
2019-04-25T07:47:21.399Z,1.20
2019-04-25T07:48:22.722Z,1.00
2019-04-25T07:49:21.395Z,1.30
2019-04-25T07:50:21.399Z,0.80
2019-04-25T07:51:21.407Z,1.70
2019-04-25T07:52:21.420Z,0.70
2019-04-25T07:53:21.418Z,0.70
2019-04-25T07:54:21.423Z,3.50
2019-04-25T07:55:21.434Z,2.50
2019-04-25T07:56:21.434Z,1.30
2019-04-25T07:57:21.450Z,1.60
2019-04-25T07:58:21.448Z,1.40
2019-04-25T07:59:21.453Z,2.00
2019-04-25T08:00:21.459Z,0.80
2019-04-25T08:01:21.468Z,0.90
2019-04-25T08:02:23.210Z,3.50
2019-04-25T08:03:21.476Z,1.40
2019-04-25T08:04:21.484Z,2.70
2019-04-25T08:05:21.485Z,2.20
2019-04-25T08:06:22.644Z,1.40
2019-04-25T08:07:21.502Z,1.20
2019-04-25T08:08:21.501Z,1.90
2019-04-25T08:09:21.512Z,0.90
2019-04-25T08:10:21.512Z,1.40
2019-04-25T08:11:21.515Z,3.00
2019-04-25T08:12:21.521Z,3.20
2019-04-25T08:13:21.523Z,2.80
2019-04-25T08:14:21.530Z,1.60
2019-04-25T08:15:21.536Z,1.40
2019-04-25T08:16:23.248Z,3.30
2019-04-25T08:17:21.548Z,1.10
2019-04-25T08:18:23.833Z,1.00
2019-04-25T08:19:21.555Z,1.30
2019-04-25T08:20:21.562Z,1.20
2019-04-25T08:21:21.564Z,3.80
2019-04-25T08:22:21.570Z,1.20
2019-04-25T08:23:21.577Z,3.20
2019-04-25T08:24:21.579Z,2.00
2019-04-25T08:25:23.389Z,1.90
2019-04-25T08:26:21.591Z,2.10
2019-04-25T08:27:23.090Z,2.80
2019-04-25T08:28:21.602Z,1.80
2019-04-25T08:29:23.060Z,3.20
2019-04-25T08:30:21.616Z,1.30
2019-04-25T08:31:23.376Z,1.90
2019-04-25T08:32:21.627Z,2.40
2019-04-25T08:33:21.628Z,3.50
2019-04-25T08:34:21.638Z,1.30
2019-04-25T08:35:21.643Z,3.90
2019-04-25T08:36:23.262Z,2.90
2019-04-25T08:37:21.654Z,2.90
2019-04-25T08:38:23.753Z,2.60
2019-04-25T08:39:21.664Z,1.60
2019-04-25T08:40:21.669Z,2.40
2019-04-25T08:41:21.758Z,4.30
2019-04-25T08:42:21.680Z,2.50
2019-04-25T08:43:21.681Z,1.30
2019-04-25T08:44:21.684Z,1.50
2019-04-25T08:45:21.687Z,1.50
2019-04-25T08:46:21.691Z,1.80
2019-04-25T08:47:21.695Z,2.20
2019-04-25T08:48:23.418Z,3.00
2019-04-25T08:49:21.699Z,3.00
2019-04-25T08:50:28.966Z,2.30
2019-04-25T08:51:23.292Z,0.90
2019-04-25T08:52:21.708Z,1.90
2019-04-25T08:53:21.713Z,2.30
2019-04-25T08:54:23.532Z,3.20
2019-04-25T08:55:21.718Z,1.10
2019-04-25T08:56:21.721Z,1.00
2019-04-25T08:57:21.724Z,2.60
2019-04-25T08:58:21.722Z,2.10
2019-04-25T08:59:32.767Z,1.40
2019-04-25T09:00:21.731Z,4.30
2019-04-25T09:01:21.730Z,2.70
2019-04-25T09:02:23.376Z,2.00
2019-04-25T09:03:21.732Z,1.20
2019-04-25T09:04:21.739Z,3.20
2019-04-25T09:05:21.736Z,3.10
2019-04-25T09:06:21.738Z,2.60
2019-04-25T09:07:23.483Z,3.20
2019-04-25T09:08:21.747Z,2.50
2019-04-25T09:09:21.746Z,3.10
2019-04-25T09:10:21.746Z,1.10
2019-04-25T09:11:21.747Z,2.70
2019-04-25T09:12:21.749Z,1.10
2019-04-25T09:13:23.126Z,2.20
2019-04-25T09:14:21.752Z,3.00
2019-04-25T09:15:21.756Z,0.80
2019-04-25T09:16:21.755Z,1.70
2019-04-25T09:17:21.756Z,0.90
2019-04-25T09:18:21.759Z,1.60
2019-04-25T09:19:21.759Z,1.70
2019-04-25T09:20:23.518Z,1.10
2019-04-25T09:21:21.762Z,1.80
2019-04-25T09:22:21.762Z,2.10
2019-04-25T09:23:23.476Z,2.90
2019-04-25T09:24:21.767Z,2.00
2019-04-25T09:25:22.114Z,1.50
2019-04-25T09:26:21.769Z,1.50
2019-04-25T09:27:23.358Z,0.80
2019-04-25T09:28:21.774Z,2.30
2019-04-25T09:29:23.376Z,3.80
2019-04-25T09:30:21.775Z,2.30
2019-04-25T09:31:23.479Z,1.60
2019-04-25T09:32:21.773Z,2.40
2019-04-25T09:33:23.180Z,2.30
2019-04-25T09:34:21.775Z,1.50
2019-04-25T09:35:23.481Z,2.00
2019-04-25T09:36:21.785Z,3.30
2019-04-25T09:37:21.783Z,1.00
2019-04-25T09:38:21.779Z,1.70
2019-04-25T09:39:21.784Z,1.20
2019-04-25T09:40:21.785Z,2.20
2019-04-25T09:41:23.558Z,0.80
2019-04-25T09:42:21.787Z,2.50
2019-04-25T09:43:23.451Z,1.50
2019-04-25T09:44:21.787Z,1.20
2019-04-25T09:45:24.658Z,1.50
2019-04-25T09:46:21.789Z,1.90
2019-04-25T09:47:23.396Z,1.90
2019-04-25T09:48:23.127Z,1.90
2019-04-25T09:49:21.791Z,2.30
2019-04-25T09:50:21.790Z,1.90
2019-04-25T09:51:23.465Z,2.30
2019-04-25T09:52:21.799Z,1.10
2019-04-25T09:53:23.883Z,2.20
2019-04-25T09:54:23.681Z,1.80
2019-04-25T09:55:21.802Z,1.40
2019-04-25T09:56:21.803Z,1.70
2019-04-25T09:57:23.347Z,2.50
2019-04-25T09:58:21.810Z,1.10
2019-04-25T09:59:28.099Z,2.20
2019-04-25T10:00:23.225Z,1.30
2019-04-25T10:01:21.805Z,0.90
2019-04-25T10:02:21.812Z,1.60
2019-04-25T10:03:23.346Z,1.20
2019-04-25T10:04:23.092Z,1.80
2019-04-25T10:05:21.813Z,2.00
2019-04-25T10:06:23.293Z,1.10
2019-04-25T10:07:21.816Z,1.60
2019-04-25T10:08:21.818Z,2.20
2019-04-25T10:09:23.651Z,2.10
2019-04-25T10:10:21.819Z,4.00
2019-04-25T10:11:23.609Z,2.90
2019-04-25T10:12:23.128Z,2.40
2019-04-25T10:13:21.825Z,2.00
2019-04-25T10:14:21.826Z,0.70
2019-04-25T10:15:21.826Z,1.00
2019-04-25T10:16:21.831Z,1.10
2019-04-25T10:17:21.832Z,1.30
2019-04-25T10:18:23.333Z,1.90
2019-04-25T10:19:23.476Z,1.70
2019-04-25T10:20:23.191Z,0.90
2019-04-25T10:21:21.835Z,2.00
2019-04-25T10:22:21.841Z,0.80
2019-04-25T10:23:21.841Z,1.30
2019-04-25T10:24:21.843Z,1.10
2019-04-25T10:25:23.362Z,1.20
2019-04-25T10:26:21.847Z,1.30
2019-04-25T10:27:21.845Z,2.50
2019-04-25T10:28:23.345Z,2.10
2019-04-25T10:29:21.849Z,1.90
2019-04-25T10:30:25.404Z,1.20
2019-04-25T10:31:23.649Z,2.00
2019-04-25T10:32:23.664Z,2.00
2019-04-25T10:33:21.863Z,1.20
2019-04-25T10:34:21.857Z,2.90
2019-04-25T10:35:21.862Z,1.70
2019-04-25T10:36:22.993Z,0.80
2019-04-25T10:37:21.861Z,2.20
2019-04-25T10:38:21.867Z,1.00
2019-04-25T10:39:21.944Z,2.30
2019-04-25T10:40:23.400Z,3.20
2019-04-25T10:41:21.870Z,3.60
2019-04-25T10:42:21.872Z,2.30
2019-04-25T10:43:23.881Z,1.80
2019-04-25T10:44:21.877Z,2.30
2019-04-25T10:45:24.235Z,2.50
2019-04-25T10:46:21.880Z,1.90
2019-04-25T10:47:21.883Z,1.50
2019-04-25T10:48:21.886Z,1.10
2019-04-25T10:49:23.527Z,3.40
2019-04-25T10:50:23.710Z,1.50
2019-04-25T10:51:21.894Z,2.70
2019-04-25T10:52:23.366Z,1.60
2019-04-25T10:53:23.464Z,3.30
2019-04-25T10:54:21.900Z,1.10
2019-04-25T10:55:23.387Z,1.20
2019-04-25T10:56:21.904Z,1.60
2019-04-25T10:57:21.906Z,0.80
2019-04-25T10:58:21.905Z,2.70
2019-04-25T10:59:23.463Z,1.20
2019-04-25T11:00:21.911Z,1.70
2019-04-25T11:01:21.911Z,1.70
2019-04-25T11:02:23.482Z,1.30
2019-04-25T11:03:21.918Z,2.20
2019-04-25T11:04:21.919Z,1.10
2019-04-25T11:05:21.922Z,3.20
2019-04-25T11:06:23.316Z,2.30
2019-04-25T11:07:23.386Z,1.30
2019-04-25T11:08:21.943Z,1.10
2019-04-25T11:09:21.936Z,1.20
2019-04-25T11:10:23.486Z,2.70
2019-04-25T11:11:21.933Z,2.80
2019-04-25T11:12:23.351Z,0.70
2019-04-25T11:13:21.942Z,2.30
2019-04-25T11:14:23.789Z,1.50
2019-04-25T11:15:23.282Z,2.10
2019-04-25T11:16:21.942Z,1.50
2019-04-25T11:17:24.102Z,2.70
2019-04-25T11:18:21.950Z,2.40
2019-04-25T11:19:23.686Z,3.00
2019-04-25T11:20:23.186Z,2.80
2019-04-25T11:21:21.953Z,1.90
2019-04-25T11:22:21.961Z,2.20
2019-04-25T11:23:21.965Z,1.90
2019-04-25T11:24:23.511Z,0.80
2019-04-25T11:25:23.922Z,1.40
2019-04-25T11:26:21.969Z,2.20
2019-04-25T11:27:23.754Z,2.00
2019-04-25T11:28:23.392Z,1.60
2019-04-25T11:29:21.972Z,1.90
2019-04-25T11:30:21.979Z,2.50
2019-04-25T11:31:23.462Z,2.60
2019-04-25T11:32:23.720Z,2.90
2019-04-25T11:33:22.950Z,2.20
2019-04-25T11:34:22.831Z,1.60
2019-04-25T11:35:21.992Z,1.90
2019-04-25T11:36:21.997Z,1.10
2019-04-25T11:37:23.549Z,1.80
2019-04-25T11:38:23.685Z,2.00
2019-04-25T11:39:21.996Z,1.60
2019-04-25T11:40:23.429Z,2.00
2019-04-25T11:41:22.000Z,1.30
2019-04-25T11:42:23.310Z,3.20
2019-04-25T11:43:22.006Z,1.20
2019-04-25T11:44:22.009Z,1.60
2019-04-25T11:45:22.010Z,1.10
2019-04-25T11:46:22.011Z,2.70
2019-04-25T11:47:22.014Z,2.30
2019-04-25T11:48:23.742Z,5.00
2019-04-25T11:49:23.741Z,3.70
2019-04-25T11:50:22.019Z,2.10
2019-04-25T11:51:22.025Z,2.00
2019-04-25T11:52:28.406Z,3.00
2019-04-25T11:53:24.747Z,1.70
2019-04-25T11:54:22.032Z,1.50
2019-04-25T11:55:23.775Z,1.50
2019-04-25T11:56:22.039Z,1.90
2019-04-25T11:57:23.324Z,0.70
2019-04-25T11:58:23.515Z,1.10
2019-04-25T11:59:23.424Z,4.30
2019-04-25T12:00:22.867Z,1.30
2019-04-25T12:01:22.048Z,4.00
2019-04-25T12:02:23.847Z,2.30
2019-04-25T12:03:23.215Z,1.70
2019-04-25T12:04:23.832Z,1.60
2019-04-25T12:05:23.505Z,1.30
2019-04-25T12:06:22.060Z,3.10
2019-04-25T12:07:23.639Z,1.90
2019-04-25T12:08:22.065Z,2.40
2019-04-25T12:09:22.066Z,2.00
2019-04-25T12:10:22.068Z,2.30
2019-04-25T12:11:23.497Z,1.90
2019-04-25T12:12:23.656Z,2.90
2019-04-25T12:13:24.140Z,2.00
2019-04-25T12:14:23.565Z,2.30
2019-04-25T12:15:23.965Z,4.00
2019-04-25T12:16:22.087Z,1.60
2019-04-25T12:17:23.402Z,4.10
2019-04-25T12:18:22.091Z,1.90
2019-04-25T12:19:33.109Z,1.10
2019-04-25T12:20:22.095Z,3.50
2019-04-25T12:21:23.857Z,1.90
2019-04-25T12:22:23.719Z,1.20
2019-04-25T12:23:23.387Z,2.70
2019-04-25T12:24:23.793Z,2.10
2019-04-25T12:25:23.610Z,1.50
2019-04-25T12:26:22.110Z,1.80
2019-04-25T12:27:22.113Z,1.10
2019-04-25T12:28:23.547Z,3.80
2019-04-25T12:29:22.121Z,1.20
2019-04-25T12:30:36.177Z,2.70
2019-04-25T12:31:23.744Z,1.80
2019-04-25T12:32:22.126Z,2.20
2019-04-25T12:33:23.825Z,0.70
2019-04-25T12:34:22.131Z,2.50
2019-04-25T12:35:22.135Z,0.90
2019-04-25T12:36:22.135Z,2.70
2019-04-25T12:37:23.538Z,0.70
2019-04-25T12:38:22.143Z,1.50
2019-04-25T12:39:24.131Z,2.90
2019-04-25T12:40:24.032Z,1.90
2019-04-25T12:41:22.149Z,3.40
2019-04-25T12:42:22.154Z,2.20
2019-04-25T12:43:23.908Z,2.10
2019-04-25T12:44:22.159Z,2.30
2019-04-25T12:45:22.165Z,1.80
2019-04-25T12:46:22.165Z,2.70
2019-04-25T12:47:23.888Z,2.70
2019-04-25T12:48:23.467Z,1.70
2019-04-25T12:49:23.825Z,1.50
2019-04-25T12:50:23.039Z,0.80
2019-04-25T12:51:22.178Z,1.50
2019-04-25T12:52:24.356Z,2.90
2019-04-25T12:53:23.595Z,0.80
2019-04-25T12:54:23.782Z,1.80
2019-04-25T12:55:23.890Z,4.70
2019-04-25T12:56:24.602Z,2.10
2019-04-25T12:57:22.194Z,2.50
2019-04-25T12:58:23.493Z,1.80
2019-04-25T12:59:22.206Z,1.70
2019-04-25T13:00:22.205Z,2.00
2019-04-25T13:01:23.073Z,1.20
2019-04-25T13:02:23.551Z,1.50
2019-04-25T13:03:24.035Z,1.50
2019-04-25T13:04:22.217Z,3.90
2019-04-25T13:05:22.218Z,1.80
2019-04-25T13:06:23.522Z,1.70
2019-04-25T13:07:23.636Z,2.10
2019-04-25T13:08:22.227Z,1.00
2019-04-25T13:09:22.230Z,1.00